Terminal Aerodrome Forecast
Issued by NWS Grand Forks, ND

Home | Current Version | Previous Version | Graphics & Text | Print | Product List | Glossary On
Versions: 1 2 3 4 5 6 7 8 9 10 11 12 13 14 15 16 17
474
FTUS43 KFGF 031720
TAFGFK
TAF
KGFK 031720Z 0318/0418 28006KT P6SM BKN070
     FM040000 23007KT 4SM -SN OVC025
     FM040800 29007KT P6SM BKN020
     FM041200 32007KT P6SM BKN015=

USA.gov is the U.S. government's official web portal to all federal, state and local government web resources and services.